Tupelo Regional Airport Tupelo US
ICAO: KTUP
IATA: TUP
Category: Medium
Scheduled Services: Yes

Elevation: 346 ft
TransAlt. 18000 ft.

Airport Communications:
ASOS:133.525
MEMPHIS CNTR:128.5
CTAF:118.775
GND:121.825
ARNG OPS:33.5
RDO:122.5
TWR:118.775

KTUP Zoom In..

If you have problems with the map follow the link
https://www.worldairports.se/pages/airport.php?
ICAO=KTUP

Runways:

(A) RW 18 length 7150 ft width 150 ft
---- / hdg 179

(B) RW 36 length 7150 ft width 150 ft
ILS 108.50 / hdg 359

Location; KTUP
Day. 29 / Time. 11.53 Zulu
* Altimeter: 29.95
* Temperature: 08° c. 46.4°f.
* Wind from: KTU° Speed P kn.
Dewpoint: 06° c.
Visibility: 10 Statute Miles.
Clouds: Overcast 7500 ft.

KTUP 291153Z 03007KT 10SM OVC075 08/06 A2995 RMK AO2 RAB02E41 SLP141 P0001 60002 70003 T00830061 10100 20083 58005


Wind From KTU°
Speed P kn.

 
 
jpsmedia worldairports.se 2020   terms of use